Sansom Park, Texas
Current Conditions -  °F | °C
As of 6:52 AM on Thursday 27 Nov 2014 (Local Time) from KNFW Reporting Station
Clear Clear  
Wind Chill: 36°   Ceiling: Unl
Heat Index: 40°   Visibility: 10mi
Dew Point: 27°   Wind: 6mph
Humidity: 60%   Direction: 320°NW
Pressure: 30.55"   Gusts: NA
Location:  32.7763°N, 97.4092°W
Report Text: KNFW 271252Z AUTO 32005KT 10SM CLR 04/M03 A3055 RMK AO2 SLP326 T00441028
Loading
Personal Weather Stations






























Interactive Weather Map New forecast layout! Learn more

10-Day Weather Forecast

Advertisements
Track Severe Weather on mobile